sensor_id;sensor_type;location;lat;lon;timestamp;pressure;altitude;pressure_sealevel;temperature;humidity
62248;BME280;48237;50.140;8.486;2023-02-22T00:00:42;99567.69;;;6.68;87.37
62248;BME280;48237;50.140;8.486;2023-02-22T00:03:12;99562.82;;;7.02;94.76
62248;BME280;48237;50.140;8.486;2023-02-22T00:05:39;99565.38;;;6.54;88.80
62248;BME280;48237;50.140;8.486;2023-02-22T00:08:07;99562.43;;;7.28;86.88
62248;BME280;48237;50.140;8.486;2023-02-22T00:10:34;99566.25;;;5.74;92.31
62248;BME280;48237;50.140;8.486;2023-02-22T00:13:02;99566.69;;;7.23;93.95
62248;BME280;48237;50.140;8.486;2023-02-22T00:15:28;99562.42;;;7.39;84.66
62248;BME280;48237;50.140;8.486;2023-02-22T00:17:55;99563.94;;;7.04;84.04
62248;BME280;48237;50.140;8.486;2023-02-22T00:20:23;99563.32;;;7.29;82.75
62248;BME280;48237;50.140;8.486;2023-02-22T00:22:50;99565.25;;;6.42;86.57
62248;BME280;48237;50.140;8.486;2023-02-22T00:25:19;99560.16;;;6.70;85.48
62248;BME280;48237;50.140;8.486;2023-02-22T00:27:47;99554.56;;;7.49;83.53
62248;BME280;48237;50.140;8.486;2023-02-22T00:30:16;99553.57;;;7.05;83.65
62248;BME280;48237;50.140;8.486;2023-02-22T00:32:44;99552.74;;;6.56;98.19
62248;BME280;48237;50.140;8.486;2023-02-22T00:35:12;99554.19;;;6.83;86.63
62248;BME280;48237;50.140;8.486;2023-02-22T00:37:40;99552.50;;;6.26;85.37
62248;BME280;48237;50.140;8.486;2023-02-22T00:40:08;99550.18;;;5.83;88.42
62248;BME280;48237;50.140;8.486;2023-02-22T00:42:36;99549.26;;;5.86;88.41
62248;BME280;48237;50.140;8.486;2023-02-22T00:45:04;99546.49;;;6.99;84.34
62248;BME280;48237;50.140;8.486;2023-02-22T00:47:32;99545.46;;;5.67;87.59
62248;BME280;48237;50.140;8.486;2023-02-22T00:49:59;99545.67;;;6.38;84.99
62248;BME280;48237;50.140;8.486;2023-02-22T00:52:27;99544.82;;;5.77;86.18
62248;BME280;48237;50.140;8.486;2023-02-22T00:54:55;99542.04;;;6.03;88.37
62248;BME280;48237;50.140;8.486;2023-02-22T00:57:23;99534.58;;;6.69;85.50
62248;BME280;48237;50.140;8.486;2023-02-22T00:59:50;99535.09;;;5.90;88.48
62248;BME280;48237;50.140;8.486;2023-02-22T01:02:17;99530.92;;;6.77;83.60
62248;BME280;48237;50.140;8.486;2023-02-22T01:04:44;99530.70;;;5.35;89.87
62248;BME280;48237;50.140;8.486;2023-02-22T01:07:12;99527.30;;;6.59;86.13
62248;BME280;48237;50.140;8.486;2023-02-22T01:09:39;99520.41;;;6.59;84.95
62248;BME280;48237;50.140;8.486;2023-02-22T01:12:07;99521.83;;;6.39;95.65
62248;BME280;48237;50.140;8.486;2023-02-22T01:14:34;99520.88;;;6.22;96.64
62248;BME280;48237;50.140;8.486;2023-02-22T01:17:01;99516.62;;;6.35;93.61
62248;BME280;48237;50.140;8.486;2023-02-22T01:19:28;99512.23;;;6.23;88.32
62248;BME280;48237;50.140;8.486;2023-02-22T01:21:54;99509.43;;;6.02;87.69
62248;BME280;48237;50.140;8.486;2023-02-22T01:24:21;99511.47;;;6.23;87.16
62248;BME280;48237;50.140;8.486;2023-02-22T01:26:50;99512.79;;;6.34;85.91
62248;BME280;48237;50.140;8.486;2023-02-22T01:29:18;99511.24;;;6.09;87.29
62248;BME280;48237;50.140;8.486;2023-02-22T01:31:51;99506.50;;;6.58;85.67
62248;BME280;48237;50.140;8.486;2023-02-22T01:34:18;99508.53;;;6.12;87.53
62248;BME280;48237;50.140;8.486;2023-02-22T01:36:45;99503.62;;;6.08;87.87
62248;BME280;48237;50.140;8.486;2023-02-22T01:39:12;99502.26;;;6.11;88.79
62248;BME280;48237;50.140;8.486;2023-02-22T01:41:39;99502.59;;;6.32;87.32
62248;BME280;48237;50.140;8.486;2023-02-22T01:44:27;99499.82;;;5.82;89.15
62248;BME280;48237;50.140;8.486;2023-02-22T01:46:56;99496.30;;;6.29;84.89
62248;BME280;48237;50.140;8.486;2023-02-22T01:49:26;99497.25;;;6.00;89.09
62248;BME280;48237;50.140;8.486;2023-02-22T01:51:57;99495.04;;;5.90;90.19
62248;BME280;48237;50.140;8.486;2023-02-22T01:54:30;99489.31;;;5.80;87.16
62248;BME280;48237;50.140;8.486;2023-02-22T01:57:02;99486.60;;;6.75;82.66
62248;BME280;48237;50.140;8.486;2023-02-22T01:59:35;99482.98;;;5.54;85.88
62248;BME280;48237;50.140;8.486;2023-02-22T02:02:04;99482.31;;;5.96;83.63
62248;BME280;48237;50.140;8.486;2023-02-22T02:04:32;99479.13;;;5.33;87.27
62248;BME280;48237;50.140;8.486;2023-02-22T02:07:03;99482.79;;;4.85;87.92
62248;BME280;48237;50.140;8.486;2023-02-22T02:09:38;99483.24;;;5.28;89.08
62248;BME280;48237;50.140;8.486;2023-02-22T02:12:09;99477.65;;;6.38;84.93
62248;BME280;48237;50.140;8.486;2023-02-22T02:14:36;99471.82;;;6.21;82.88
62248;BME280;48237;50.140;8.486;2023-02-22T02:17:04;99464.81;;;6.30;81.83
62248;BME280;48237;50.140;8.486;2023-02-22T02:19:40;99468.90;;;5.59;86.89
62248;BME280;48237;50.140;8.486;2023-02-22T02:22:21;99467.25;;;6.54;99.33
62248;BME280;48237;50.140;8.486;2023-02-22T02:25:10;99470.08;;;5.53;98.71
62248;BME280;48237;50.140;8.486;2023-02-22T02:28:33;99469.09;;;5.64;100.00
62248;BME280;48237;50.140;8.486;2023-02-22T02:31:21;99465.82;;;6.46;99.99
62248;BME280;48237;50.140;8.486;2023-02-22T02:33:59;99464.92;;;6.04;93.68
62248;BME280;48237;50.140;8.486;2023-02-22T02:36:30;99462.51;;;6.85;83.58
62248;BME280;48237;50.140;8.486;2023-02-22T02:39:05;99460.73;;;5.30;87.50
62248;BME280;48237;50.140;8.486;2023-02-22T02:41:38;99458.18;;;5.83;88.06
62248;BME280;48237;50.140;8.486;2023-02-22T02:44:11;99457.03;;;5.99;90.10
62248;BME280;48237;50.140;8.486;2023-02-22T02:46:53;99457.14;;;5.93;93.87
62248;BME280;48237;50.140;8.486;2023-02-22T02:49:28;99460.33;;;5.90;100.00
62248;BME280;48237;50.140;8.486;2023-02-22T02:51:57;99456.59;;;6.73;98.63
62248;BME280;48237;50.140;8.486;2023-02-22T02:54:25;99453.91;;;6.42;97.37
62248;BME280;48237;50.140;8.486;2023-02-22T02:56:54;99450.32;;;6.79;91.78
62248;BME280;48237;50.140;8.486;2023-02-22T02:59:24;99451.05;;;5.50;89.79
62248;BME280;48237;50.140;8.486;2023-02-22T03:02:04;99446.60;;;6.27;85.93
62248;BME280;48237;50.140;8.486;2023-02-22T03:04:44;99441.55;;;5.67;90.38
62248;BME280;48237;50.140;8.486;2023-02-22T03:07:30;99442.85;;;5.71;94.01
62248;BME280;48237;50.140;8.486;2023-02-22T03:10:12;99441.63;;;5.11;100.00
62248;BME280;48237;50.140;8.486;2023-02-22T03:12:48;99437.59;;;6.08;100.00
62248;BME280;48237;50.140;8.486;2023-02-22T03:15:32;99432.71;;;6.97;95.78
62248;BME280;48237;50.140;8.486;2023-02-22T03:18:06;99429.54;;;6.87;100.00
62248;BME280;48237;50.140;8.486;2023-02-22T03:20:42;99428.09;;;7.38;100.00
62248;BME280;48237;50.140;8.486;2023-02-22T03:23:16;99427.83;;;6.91;94.64
62248;BME280;48237;50.140;8.486;2023-02-22T03:25:50;99429.53;;;7.32;93.49
62248;BME280;48237;50.140;8.486;2023-02-22T03:28:24;99431.48;;;5.34;96.41
62248;BME280;48237;50.140;8.486;2023-02-22T03:30:57;99429.45;;;4.80;98.83
62248;BME280;48237;50.140;8.486;2023-02-22T03:33:29;99426.41;;;6.14;92.13
62248;BME280;48237;50.140;8.486;2023-02-22T03:36:06;99420.29;;;6.49;90.26
62248;BME280;48237;50.140;8.486;2023-02-22T03:38:37;99419.02;;;5.68;96.34
62248;BME280;48237;50.140;8.486;2023-02-22T03:41:07;99415.78;;;5.02;100.00
62248;BME280;48237;50.140;8.486;2023-02-22T03:43:39;99411.89;;;6.07;100.00
62248;BME280;48237;50.140;8.486;2023-02-22T03:46:09;99415.19;;;4.98;98.71
62248;BME280;48237;50.140;8.486;2023-02-22T03:48:44;99412.29;;;6.22;94.49
62248;BME280;48237;50.140;8.486;2023-02-22T03:51:13;99409.97;;;5.61;97.05
62248;BME280;48237;50.140;8.486;2023-02-22T03:53:42;99412.69;;;5.98;96.12
62248;BME280;48237;50.140;8.486;2023-02-22T03:56:15;99415.81;;;5.28;100.00
62248;BME280;48237;50.140;8.486;2023-02-22T03:58:46;99412.18;;;6.52;93.89
62248;BME280;48237;50.140;8.486;2023-02-22T04:01:14;99409.62;;;5.47;96.04
62248;BME280;48237;50.140;8.486;2023-02-22T04:03:42;99409.49;;;5.66;95.74
62248;BME280;48237;50.140;8.486;2023-02-22T04:06:10;99409.22;;;5.49;97.66
62248;BME280;48237;50.140;8.486;2023-02-22T04:08:38;99409.75;;;5.13;98.14
62248;BME280;48237;50.140;8.486;2023-02-22T04:11:06;99408.34;;;6.02;96.02
62248;BME280;48237;50.140;8.486;2023-02-22T04:13:33;99410.27;;;5.87;96.00
62248;BME280;48237;50.140;8.486;2023-02-22T04:16:00;99407.57;;;6.84;88.92
62248;BME280;48237;50.140;8.486;2023-02-22T04:18:27;99405.02;;;5.93;88.39
62248;BME280;48237;50.140;8.486;2023-02-22T04:20:55;99405.87;;;6.60;86.09
62248;BME280;48237;50.140;8.486;2023-02-22T04:23:22;99403.15;;;6.25;88.45
62248;BME280;48237;50.140;8.486;2023-02-22T04:25:49;99397.69;;;6.29;87.23
62248;BME280;48237;50.140;8.486;2023-02-22T04:28:16;99397.17;;;5.43;91.64
62248;BME280;48237;50.140;8.486;2023-02-22T04:30:43;99397.44;;;6.00;92.83
62248;BME280;48237;50.140;8.486;2023-02-22T04:33:11;99393.33;;;6.52;96.59
62248;BME280;48237;50.140;8.486;2023-02-22T04:35:38;99396.98;;;6.88;98.37
62248;BME280;48237;50.140;8.486;2023-02-22T04:38:06;99394.66;;;6.73;91.39
62248;BME280;48237;50.140;8.486;2023-02-22T04:40:33;99397.44;;;6.29;89.92
62248;BME280;48237;50.140;8.486;2023-02-22T04:43:01;99396.42;;;6.99;85.09
62248;BME280;48237;50.140;8.486;2023-02-22T04:45:28;99396.66;;;6.19;88.05
62248;BME280;48237;50.140;8.486;2023-02-22T04:47:55;99393.40;;;6.31;86.67
62248;BME280;48237;50.140;8.486;2023-02-22T04:50:22;99393.33;;;5.95;88.52
62248;BME280;48237;50.140;8.486;2023-02-22T04:52:48;99395.29;;;4.93;94.61
62248;BME280;48237;50.140;8.486;2023-02-22T04:55:16;99388.67;;;6.33;88.88
62248;BME280;48237;50.140;8.486;2023-02-22T04:57:43;99393.80;;;5.05;92.01
62248;BME280;48237;50.140;8.486;2023-02-22T05:00:14;99389.70;;;5.63;90.02
62248;BME280;48237;50.140;8.486;2023-02-22T05:02:42;99384.05;;;6.55;85.92
62248;BME280;48237;50.140;8.486;2023-02-22T05:05:09;99385.50;;;5.90;87.36
62248;BME280;48237;50.140;8.486;2023-02-22T05:07:36;99381.85;;;6.09;87.55
62248;BME280;48237;50.140;8.486;2023-02-22T05:10:03;99381.14;;;5.32;89.69
62248;BME280;48237;50.140;8.486;2023-02-22T05:12:30;99373.42;;;5.79;97.39
62248;BME280;48237;50.140;8.486;2023-02-22T05:14:58;99372.42;;;6.00;90.29
62248;BME280;48237;50.140;8.486;2023-02-22T05:17:25;99372.15;;;5.41;91.49
62248;BME280;48237;50.140;8.486;2023-02-22T05:19:52;99375.76;;;5.88;91.72
62248;BME280;48237;50.140;8.486;2023-02-22T05:22:20;99374.84;;;5.87;100.00
62248;BME280;48237;50.140;8.486;2023-02-22T05:24:47;99381.78;;;4.99;100.00
62248;BME280;48237;50.140;8.486;2023-02-22T05:27:14;99376.68;;;5.87;100.00
62248;BME280;48237;50.140;8.486;2023-02-22T05:29:41;99376.08;;;5.44;95.06
62248;BME280;48237;50.140;8.486;2023-02-22T05:32:08;99374.11;;;6.32;89.18
62248;BME280;48237;50.140;8.486;2023-02-22T05:34:35;99375.21;;;6.70;85.65
62248;BME280;48237;50.140;8.486;2023-02-22T05:37:03;99371.36;;;6.29;86.89
62248;BME280;48237;50.140;8.486;2023-02-22T05:39:31;99370.27;;;6.45;86.87
62248;BME280;48237;50.140;8.486;2023-02-22T05:41:57;99373.88;;;6.07;88.53
62248;BME280;48237;50.140;8.486;2023-02-22T05:44:25;99373.30;;;5.09;94.13
62248;BME280;48237;50.140;8.486;2023-02-22T05:46:52;99371.42;;;4.97;94.85
62248;BME280;48237;50.140;8.486;2023-02-22T05:49:19;99365.21;;;5.98;90.47
62248;BME280;48237;50.140;8.486;2023-02-22T05:51:46;99361.07;;;5.51;92.07
62248;BME280;48237;50.140;8.486;2023-02-22T05:54:13;99360.05;;;6.06;84.47
62248;BME280;48237;50.140;8.486;2023-02-22T05:56:41;99357.11;;;6.25;83.88
62248;BME280;48237;50.140;8.486;2023-02-22T05:59:08;99359.34;;;6.24;84.09
62248;BME280;48237;50.140;8.486;2023-02-22T06:01:34;99357.17;;;5.44;86.14
62248;BME280;48237;50.140;8.486;2023-02-22T06:04:01;99361.67;;;5.14;90.79
62248;BME280;48237;50.140;8.486;2023-02-22T06:06:28;99362.25;;;5.75;90.90
62248;BME280;48237;50.140;8.486;2023-02-22T06:08:56;99360.66;;;6.17;88.49
62248;BME280;48237;50.140;8.486;2023-02-22T06:11:23;99362.23;;;5.46;89.38
62248;BME280;48237;50.140;8.486;2023-02-22T06:13:51;99368.83;;;5.53;92.64
62248;BME280;48237;50.140;8.486;2023-02-22T06:16:19;99362.91;;;5.40;88.56
62248;BME280;48237;50.140;8.486;2023-02-22T06:18:47;99363.28;;;5.46;88.65
62248;BME280;48237;50.140;8.486;2023-02-22T06:21:14;99361.17;;;5.97;87.38
62248;BME280;48237;50.140;8.486;2023-02-22T06:23:42;99360.51;;;5.31;90.22
62248;BME280;48237;50.140;8.486;2023-02-22T06:26:09;99367.03;;;4.89;93.05
62248;BME280;48237;50.140;8.486;2023-02-22T06:28:36;99366.28;;;5.88;88.82
62248;BME280;48237;50.140;8.486;2023-02-22T06:31:03;99367.57;;;6.07;85.89
62248;BME280;48237;50.140;8.486;2023-02-22T06:33:31;99365.56;;;5.75;85.77
62248;BME280;48237;50.140;8.486;2023-02-22T06:35:58;99367.59;;;5.89;85.53
62248;BME280;48237;50.140;8.486;2023-02-22T06:38:25;99365.02;;;6.19;83.16
62248;BME280;48237;50.140;8.486;2023-02-22T06:40:52;99369.41;;;6.03;83.99
62248;BME280;48237;50.140;8.486;2023-02-22T06:43:20;99370.24;;;5.49;88.18
62248;BME280;48237;50.140;8.486;2023-02-22T06:45:46;99373.14;;;4.76;94.00
62248;BME280;48237;50.140;8.486;2023-02-22T06:48:14;99376.56;;;5.34;100.00
62248;BME280;48237;50.140;8.486;2023-02-22T06:50:41;99376.10;;;5.99;96.49
62248;BME280;48237;50.140;8.486;2023-02-22T06:53:08;99379.04;;;6.03;92.45
62248;BME280;48237;50.140;8.486;2023-02-22T06:55:35;99376.91;;;5.96;88.59
62248;BME280;48237;50.140;8.486;2023-02-22T06:58:03;99377.31;;;5.64;88.70
62248;BME280;48237;50.140;8.486;2023-02-22T07:00:31;99378.81;;;6.13;85.75
62248;BME280;48237;50.140;8.486;2023-02-22T07:02:59;99385.42;;;5.00;90.69
62248;BME280;48237;50.140;8.486;2023-02-22T07:05:27;99384.13;;;5.85;87.76
62248;BME280;48237;50.140;8.486;2023-02-22T07:08:01;99385.06;;;6.46;83.99
62248;BME280;48237;50.140;8.486;2023-02-22T07:10:30;99387.58;;;6.05;84.71
62248;BME280;48237;50.140;8.486;2023-02-22T07:12:58;99393.12;;;5.86;86.59
62248;BME280;48237;50.140;8.486;2023-02-22T07:15:27;99392.97;;;5.93;86.96
62248;BME280;48237;50.140;8.486;2023-02-22T07:17:55;99401.96;;;5.00;92.68
62248;BME280;48237;50.140;8.486;2023-02-22T07:20:24;99399.68;;;6.08;88.41
62248;BME280;48237;50.140;8.486;2023-02-22T07:22:52;99396.75;;;5.82;91.72
62248;BME280;48237;50.140;8.486;2023-02-22T07:25:20;99396.83;;;6.06;89.04
62248;BME280;48237;50.140;8.486;2023-02-22T07:27:47;99399.72;;;6.73;87.03
62248;BME280;48237;50.140;8.486;2023-02-22T07:30:17;99399.73;;;6.48;87.45
62248;BME280;48237;50.140;8.486;2023-02-22T07:32:45;99403.47;;;5.84;88.90
62248;BME280;48237;50.140;8.486;2023-02-22T07:35:15;99407.54;;;7.16;85.47
62248;BME280;48237;50.140;8.486;2023-02-22T07:37:42;99409.91;;;6.15;89.69
62248;BME280;48237;50.140;8.486;2023-02-22T07:40:10;99410.30;;;6.24;90.44
62248;BME280;48237;50.140;8.486;2023-02-22T07:42:55;99410.65;;;5.95;92.85
62248;BME280;48237;50.140;8.486;2023-02-22T07:45:24;99410.83;;;7.47;86.63
62248;BME280;48237;50.140;8.486;2023-02-22T07:47:52;99409.01;;;7.24;87.55
62248;BME280;48237;50.140;8.486;2023-02-22T07:50:21;99417.31;;;7.06;86.78
62248;BME280;48237;50.140;8.486;2023-02-22T07:52:52;99418.97;;;6.83;89.75
62248;BME280;48237;50.140;8.486;2023-02-22T07:55:23;99420.16;;;7.89;86.18
62248;BME280;48237;50.140;8.486;2023-02-22T07:57:52;99419.11;;;6.72;91.30
62248;BME280;48237;50.140;8.486;2023-02-22T08:00:24;99421.02;;;8.12;85.56
62248;BME280;48237;50.140;8.486;2023-02-22T08:02:53;99421.67;;;8.17;85.32
62248;BME280;48237;50.140;8.486;2023-02-22T08:05:22;99418.98;;;8.66;83.77
62248;BME280;48237;50.140;8.486;2023-02-22T08:07:50;99416.85;;;8.46;83.27
62248;BME280;48237;50.140;8.486;2023-02-22T08:10:20;99416.69;;;8.54;84.20
62248;BME280;48237;50.140;8.486;2023-02-22T08:12:48;99416.08;;;8.86;83.15
62248;BME280;48237;50.140;8.486;2023-02-22T08:15:16;99415.62;;;8.24;84.44
62248;BME280;48237;50.140;8.486;2023-02-22T08:17:44;99408.10;;;9.21;80.30
62248;BME280;48237;50.140;8.486;2023-02-22T08:20:12;99406.79;;;8.52;85.47
62248;BME280;48237;50.140;8.486;2023-02-22T08:22:42;99411.75;;;7.88;90.56
62248;BME280;48237;50.140;8.486;2023-02-22T08:25:09;99407.20;;;9.41;84.28
62248;BME280;48237;50.140;8.486;2023-02-22T08:27:36;99404.76;;;8.86;85.40
62248;BME280;48237;50.140;8.486;2023-02-22T08:30:04;99409.86;;;5.91;100.00
62248;BME280;48237;50.140;8.486;2023-02-22T08:32:31;99417.71;;;3.61;100.00
62248;BME280;48237;50.140;8.486;2023-02-22T08:34:58;99412.01;;;5.69;100.00
62248;BME280;48237;50.140;8.486;2023-02-22T08:37:25;99409.58;;;6.58;100.00
62248;BME280;48237;50.140;8.486;2023-02-22T08:39:53;99412.98;;;4.57;100.00
62248;BME280;48237;50.140;8.486;2023-02-22T08:42:20;99413.37;;;3.73;100.00
62248;BME280;48237;50.140;8.486;2023-02-22T08:44:47;99412.38;;;3.89;100.00
62248;BME280;48237;50.140;8.486;2023-02-22T08:47:15;99412.44;;;3.62;100.00
62248;BME280;48237;50.140;8.486;2023-02-22T08:49:42;99413.23;;;5.09;100.00
62248;BME280;48237;50.140;8.486;2023-02-22T08:52:09;99410.54;;;6.76;100.00
62248;BME280;48237;50.140;8.486;2023-02-22T08:54:36;99417.50;;;4.14;100.00
62248;BME280;48237;50.140;8.486;2023-02-22T08:57:03;99412.61;;;6.87;100.00
62248;BME280;48237;50.140;8.486;2023-02-22T08:59:30;99411.10;;;7.16;100.00
62248;BME280;48237;50.140;8.486;2023-02-22T09:01:57;99412.24;;;7.20;100.00
62248;BME280;48237;50.140;8.486;2023-02-22T09:04:24;99414.96;;;6.65;100.00
62248;BME280;48237;50.140;8.486;2023-02-22T09:06:51;99413.69;;;6.84;100.00
62248;BME280;48237;50.140;8.486;2023-02-22T09:09:18;99413.59;;;5.21;100.00
62248;BME280;48237;50.140;8.486;2023-02-22T09:11:46;99410.93;;;6.63;100.00
62248;BME280;48237;50.140;8.486;2023-02-22T09:14:14;99406.84;;;7.46;100.00
62248;BME280;48237;50.140;8.486;2023-02-22T09:16:42;99403.55;;;6.59;100.00
62248;BME280;48237;50.140;8.486;2023-02-22T09:19:10;99400.57;;;5.56;100.00
62248;BME280;48237;50.140;8.486;2023-02-22T09:21:37;99393.72;;;5.23;100.00
62248;BME280;48237;50.140;8.486;2023-02-22T09:24:04;99394.00;;;6.75;100.00
62248;BME280;48237;50.140;8.486;2023-02-22T09:26:32;99391.75;;;7.03;100.00
62248;BME280;48237;50.140;8.486;2023-02-22T09:29:00;99395.07;;;4.78;100.00
62248;BME280;48237;50.140;8.486;2023-02-22T09:31:26;99391.26;;;5.15;100.00
62248;BME280;48237;50.140;8.486;2023-02-22T09:33:54;99393.79;;;4.69;100.00
62248;BME280;48237;50.140;8.486;2023-02-22T09:36:21;99389.64;;;4.95;100.00
62248;BME280;48237;50.140;8.486;2023-02-22T09:38:49;99390.08;;;4.80;100.00
62248;BME280;48237;50.140;8.486;2023-02-22T09:41:21;99382.76;;;6.22;100.00
62248;BME280;48237;50.140;8.486;2023-02-22T09:43:58;99379.03;;;6.25;100.00
62248;BME280;48237;50.140;8.486;2023-02-22T09:46:32;99379.82;;;5.37;100.00
62248;BME280;48237;50.140;8.486;2023-02-22T09:49:04;99384.05;;;4.99;100.00
62248;BME280;48237;50.140;8.486;2023-02-22T09:51:39;99385.34;;;4.58;100.00
62248;BME280;48237;50.140;8.486;2023-02-22T09:54:23;99382.27;;;4.34;100.00
62248;BME280;48237;50.140;8.486;2023-02-22T09:56:55;99378.78;;;5.68;100.00
62248;BME280;48237;50.140;8.486;2023-02-22T09:59:28;99380.62;;;6.27;100.00
62248;BME280;48237;50.140;8.486;2023-02-22T10:02:01;99381.52;;;5.58;100.00
62248;BME280;48237;50.140;8.486;2023-02-22T10:04:38;99381.07;;;6.37;100.00
62248;BME280;48237;50.140;8.486;2023-02-22T10:07:15;99380.88;;;7.24;100.00
62248;BME280;48237;50.140;8.486;2023-02-22T10:09:45;99379.92;;;7.39;100.00
62248;BME280;48237;50.140;8.486;2023-02-22T10:12:19;99385.32;;;5.37;100.00
62248;BME280;48237;50.140;8.486;2023-02-22T10:15:08;99381.88;;;7.33;100.00
62248;BME280;48237;50.140;8.486;2023-02-22T10:17:49;99384.14;;;5.99;100.00
62248;BME280;48237;50.140;8.486;2023-02-22T10:20:40;99385.31;;;7.32;100.00
62248;BME280;48237;50.140;8.486;2023-02-22T10:23:18;99380.07;;;7.75;100.00
62248;BME280;48237;50.140;8.486;2023-02-22T10:25:51;99376.32;;;8.75;94.90
62248;BME280;48237;50.140;8.486;2023-02-22T10:28:24;99373.88;;;8.82;97.53
62248;BME280;48237;50.140;8.486;2023-02-22T10:30:56;99376.38;;;9.51;92.84
62248;BME280;48237;50.140;8.486;2023-02-22T10:33:26;99369.57;;;10.14;89.60
62248;BME280;48237;50.140;8.486;2023-02-22T10:35:55;99372.30;;;9.71;90.41
62248;BME280;48237;50.140;8.486;2023-02-22T10:38:26;99366.23;;;10.68;86.55
62248;BME280;48237;50.140;8.486;2023-02-22T10:40:56;99369.51;;;10.49;87.42
62248;BME280;48237;50.140;8.486;2023-02-22T10:43:26;99366.16;;;10.88;81.97
62248;BME280;48237;50.140;8.486;2023-02-22T10:45:57;99365.87;;;10.67;82.28
62248;BME280;48237;50.140;8.486;2023-02-22T10:48:26;99365.23;;;8.97;90.52
62248;BME280;48237;50.140;8.486;2023-02-22T10:50:58;99371.90;;;6.85;100.00
62248;BME280;48237;50.140;8.486;2023-02-22T10:53:27;99373.49;;;7.34;100.00
62248;BME280;48237;50.140;8.486;2023-02-22T10:56:08;99362.41;;;9.46;94.22
62248;BME280;48237;50.140;8.486;2023-02-22T10:58:45;99371.74;;;6.61;100.00
62248;BME280;48237;50.140;8.486;2023-02-22T11:01:20;99367.99;;;6.07;100.00
62248;BME280;48237;50.140;8.486;2023-02-22T11:03:56;99369.65;;;6.65;100.00
62248;BME280;48237;50.140;8.486;2023-02-22T11:06:24;99358.70;;;8.88;100.00
62248;BME280;48237;50.140;8.486;2023-02-22T11:09:04;99357.66;;;7.90;100.00
62248;BME280;48237;50.140;8.486;2023-02-22T11:11:31;99354.50;;;7.68;100.00
62248;BME280;48237;50.140;8.486;2023-02-22T11:13:58;99353.03;;;9.71;93.62
62248;BME280;48237;50.140;8.486;2023-02-22T11:16:29;99345.57;;;10.81;86.55
62248;BME280;48237;50.140;8.486;2023-02-22T11:19:02;99351.10;;;9.29;93.10
62248;BME280;48237;50.140;8.486;2023-02-22T11:21:34;99350.80;;;7.86;100.00
62248;BME280;48237;50.140;8.486;2023-02-22T11:24:04;99343.02;;;9.69;92.91
62248;BME280;48237;50.140;8.486;2023-02-22T11:26:40;99348.81;;;6.68;100.00
62248;BME280;48237;50.140;8.486;2023-02-22T11:29:20;99341.95;;;6.28;100.00
62248;BME280;48237;50.140;8.486;2023-02-22T11:31:49;99341.40;;;6.21;100.00
62248;BME280;48237;50.140;8.486;2023-02-22T11:34:36;99336.38;;;6.47;100.00
62248;BME280;48237;50.140;8.486;2023-02-22T11:37:29;99327.18;;;8.84;98.68
62248;BME280;48237;50.140;8.486;2023-02-22T11:40:10;99317.05;;;9.02;96.28
62248;BME280;48237;50.140;8.486;2023-02-22T11:42:39;99306.43;;;9.84;89.50
62248;BME280;48237;50.140;8.486;2023-02-22T11:45:11;99308.72;;;8.52;98.29
62248;BME280;48237;50.140;8.486;2023-02-22T11:47:48;99299.75;;;10.63;85.56
62248;BME280;48237;50.140;8.486;2023-02-22T11:50:25;99302.52;;;10.49;84.87
62248;BME280;48237;50.140;8.486;2023-02-22T11:53:02;99299.36;;;10.32;87.27
62248;BME280;48237;50.140;8.486;2023-02-22T11:55:35;99296.63;;;9.96;88.65
62248;BME280;48237;50.140;8.486;2023-02-22T11:58:27;99297.51;;;11.42;81.37
62248;BME280;48237;50.140;8.486;2023-02-22T12:01:03;99288.89;;;12.47;75.43
62248;BME280;48237;50.140;8.486;2023-02-22T12:03:51;99284.94;;;12.90;73.36
62248;BME280;48237;50.140;8.486;2023-02-22T12:06:30;99280.04;;;12.54;71.09
62248;BME280;48237;50.140;8.486;2023-02-22T12:09:08;99277.97;;;12.66;71.60
62248;BME280;48237;50.140;8.486;2023-02-22T12:11:45;99276.55;;;12.69;72.87
62248;BME280;48237;50.140;8.486;2023-02-22T12:14:25;99274.63;;;13.00;72.37
62248;BME280;48237;50.140;8.486;2023-02-22T12:17:09;99275.64;;;12.81;70.18
62248;BME280;48237;50.140;8.486;2023-02-22T12:19:46;99272.12;;;12.78;69.10
62248;BME280;48237;50.140;8.486;2023-02-22T12:22:18;99266.62;;;12.64;71.32
62248;BME280;48237;50.140;8.486;2023-02-22T12:24:50;99266.78;;;13.93;67.23
62248;BME280;48237;50.140;8.486;2023-02-22T12:27:23;99264.87;;;12.80;69.19
62248;BME280;48237;50.140;8.486;2023-02-22T12:29:54;99270.85;;;10.62;73.77
62248;BME280;48237;50.140;8.486;2023-02-22T12:32:31;99262.44;;;12.24;72.57
62248;BME280;48237;50.140;8.486;2023-02-22T12:35:02;99265.12;;;11.53;72.51
62248;BME280;48237;50.140;8.486;2023-02-22T12:37:39;99261.04;;;12.48;69.62
62248;BME280;48237;50.140;8.486;2023-02-22T12:40:17;99261.86;;;12.15;70.15
62248;BME280;48237;50.140;8.486;2023-02-22T12:42:51;99257.67;;;12.92;68.03
62248;BME280;48237;50.140;8.486;2023-02-22T12:45:26;99258.71;;;13.29;66.92
62248;BME280;48237;50.140;8.486;2023-02-22T12:48:01;99259.31;;;12.73;71.25
62248;BME280;48237;50.140;8.486;2023-02-22T12:50:30;99256.61;;;11.95;71.14
62248;BME280;48237;50.140;8.486;2023-02-22T12:53:03;99257.15;;;11.83;74.61
62248;BME280;48237;50.140;8.486;2023-02-22T12:55:41;99257.52;;;11.35;75.82
62248;BME280;48237;50.140;8.486;2023-02-22T12:58:19;99260.45;;;8.32;88.33
62248;BME280;48237;50.140;8.486;2023-02-22T13:00:55;99260.58;;;9.75;84.48
62248;BME280;48237;50.140;8.486;2023-02-22T13:03:30;99263.58;;;7.79;96.18
62248;BME280;48237;50.140;8.486;2023-02-22T13:06:15;99259.62;;;9.23;91.46
62248;BME280;48237;50.140;8.486;2023-02-22T13:08:54;99254.21;;;10.15;84.62
62248;BME280;48237;50.140;8.486;2023-02-22T13:11:30;99252.32;;;8.42;92.11
62248;BME280;48237;50.140;8.486;2023-02-22T13:14:10;99248.13;;;9.46;87.53
62248;BME280;48237;50.140;8.486;2023-02-22T13:16:46;99248.26;;;10.96;81.68
62248;BME280;48237;50.140;8.486;2023-02-22T13:19:29;99247.29;;;10.48;80.59
62248;BME280;48237;50.140;8.486;2023-02-22T13:22:05;99237.94;;;12.46;75.05
62248;BME280;48237;50.140;8.486;2023-02-22T13:24:45;99242.20;;;9.55;87.45
62248;BME280;48237;50.140;8.486;2023-02-22T13:27:18;99238.14;;;9.68;85.74